Time;durP1;ratioP1;P1;durP2;ratioP2;P2;SDS_P1;SDS_P2;PMS_P1;PMS_P2;Temp;Humidity;BMP_temperature;BMP_pressure;BME280_temperature;BME280_humidity;BME280_pressure;Samples;Min_cycle;Max_cycle;Signal;HPM_P1;HPM_P2
2022/02/17 00:02:14;;;;;;;45.83;27.90;;;9.10;97.90;;;;;;5113901;28;20046;-84
2022/02/17 00:05:18;;;;;;;46.72;28.50;;;9.00;97.90;;;;;;5114118;28;20386;-84
2022/02/17 00:08:22;;;;;;;50.78;31.77;;;9.00;97.80;;;;;;5113743;28;20043;-84
2022/02/17 00:11:26;;;;;;;51.75;31.02;;;9.00;97.40;;;;;;5113214;28;20050;-83
2022/02/17 00:14:30;;;;;;;58.88;35.97;;;9.10;97.20;;;;;;5112852;28;20502;-84
2022/02/17 00:17:35;;;;;;;60.75;35.63;;;9.10;97.10;;;;;;5113681;28;20043;-83
2022/02/17 00:20:39;;;;;;;67.00;38.28;;;8.90;97.20;;;;;;5112670;28;20403;-84
2022/02/17 00:23:43;;;;;;;59.30;37.40;;;8.80;97.10;;;;;;5113619;28;20395;-84
2022/02/17 00:26:47;;;;;;;68.05;37.85;;;8.70;97.30;;;;;;5113467;28;20050;-84
2022/02/17 00:29:51;;;;;;;60.53;36.08;;;8.60;97.00;;;;;;5113422;28;20050;-84
2022/02/17 00:32:55;;;;;;;58.13;34.75;;;8.60;97.60;;;;;;5112867;28;20050;-83
2022/02/17 00:35:59;;;;;;;61.85;34.67;;;8.60;98.10;;;;;;5112663;28;20047;-84
2022/02/17 00:39:05;;;;;;;75.88;34.17;;;8.50;98.20;;;;;;5113232;28;20038;-84
2022/02/17 00:42:09;;;;;;;55.83;33.50;;;8.50;98.30;;;;;;5113292;28;20578;-84
2022/02/17 00:45:15;;;;;;;56.63;36.47;;;8.40;98.80;;;;;;5112528;28;20042;-84
2022/02/17 00:48:19;;;;;;;61.08;36.15;;;8.40;98.10;;;;;;5112833;28;20039;-84
2022/02/17 00:51:24;;;;;;;62.08;36.42;;;8.30;97.90;;;;;;5112737;28;20054;-84
2022/02/17 00:54:28;;;;;;;63.63;38.38;;;8.40;98.30;;;;;;5113244;28;20050;-84
2022/02/17 00:57:32;;;;;;;65.57;38.55;;;8.40;98.20;;;;;;5112217;28;20043;-84
2022/02/17 01:00:37;;;;;;;67.03;39.38;;;8.30;98.40;;;;;;5111745;28;20047;-84
2022/02/17 01:03:45;;;;;;;64.13;38.80;;;8.30;98.70;;;;;;5112020;28;20077;-84
2022/02/17 01:06:49;;;;;;;57.70;37.65;;;8.30;99.00;;;;;;5111874;28;20050;-83
2022/02/17 01:09:54;;;;;;;58.95;35.67;;;8.30;99.10;;;;;;5112230;28;20042;-84
2022/02/17 01:12:59;;;;;;;57.42;35.03;;;8.30;99.10;;;;;;5111693;28;20050;-84
2022/02/17 01:16:07;;;;;;;52.25;34.33;;;8.40;99.10;;;;;;5112708;28;20054;-84
2022/02/17 01:19:12;;;;;;;57.20;35.38;;;8.40;99.00;;;;;;5112763;28;20051;-83
2022/02/17 01:22:21;;;;;;;53.65;35.50;;;8.30;98.20;;;;;;5111602;28;20479;-84
2022/02/17 01:25:30;;;;;;;58.25;35.50;;;8.30;98.30;;;;;;5100430;28;20043;-84
2022/02/17 01:28:36;;;;;;;58.97;36.17;;;8.20;98.20;;;;;;5112411;28;20296;-84
2022/02/17 01:31:41;;;;;;;57.55;35.38;;;8.20;98.10;;;;;;5111199;28;20042;-84
2022/02/17 01:34:47;;;;;;;61.55;38.67;;;8.20;97.40;;;;;;5111416;28;20050;-84
2022/02/17 01:37:51;;;;;;;59.78;35.50;;;8.10;97.10;;;;;;5087992;28;20359;-85
2022/02/17 01:40:56;;;;;;;61.83;36.42;;;8.10;96.60;;;;;;5111366;28;20042;-84
2022/02/17 01:44:02;;;;;;;59.40;37.13;;;7.90;96.30;;;;;;5112129;28;20047;-84
2022/02/17 01:47:12;;;;;;;62.13;39.47;;;7.70;96.70;;;;;;5112260;28;20387;-84
2022/02/17 01:50:17;;;;;;;65.30;39.60;;;7.60;97.40;;;;;;5110045;28;20054;-84
2022/02/17 01:53:22;;;;;;;72.20;40.95;;;7.60;98.00;;;;;;5111613;28;20047;-84
2022/02/17 01:56:31;;;;;;;64.93;39.28;;;7.60;98.10;;;;;;5098473;28;20039;-84
2022/02/17 01:59:44;;;;;;;64.50;39.53;;;7.60;98.10;;;;;;5110147;28;20391;-84
2022/02/17 02:02:57;;;;;;;63.90;40.15;;;7.50;97.90;;;;;;5098203;28;20330;-84
2022/02/17 02:06:18;;;;;;;69.45;39.45;;;7.50;98.00;;;;;;5110193;28;20387;-84
2022/02/17 02:09:42;;;;;;;60.08;37.50;;;7.50;98.00;;;;;;5111204;28;20051;-84
2022/02/17 02:12:50;;;;;;;61.20;35.63;;;7.50;97.90;;;;;;5110030;28;20047;-84
2022/02/17 02:16:07;;;;;;;55.17;35.13;;;7.60;98.30;;;;;;5109784;28;20045;-84
2022/02/17 02:19:13;;;;;;;61.10;34.30;;;7.60;98.50;;;;;;5109910;28;20043;-84
2022/02/17 02:22:18;;;;;;;54.15;34.80;;;7.70;98.70;;;;;;5097966;28;20197;-84
2022/02/17 02:25:25;;;;;;;58.85;35.85;;;7.80;98.50;;;;;;5109718;28;20047;-85
2022/02/17 02:28:32;;;;;;;56.47;36.17;;;7.80;97.50;;;;;;5109706;28;20387;-84
2022/02/17 02:31:39;;;;;;;57.40;32.60;;;7.80;97.50;;;;;;5098035;28;20050;-84
2022/02/17 02:34:43;;;;;;;59.60;35.50;;;7.80;97.40;;;;;;5109672;28;20047;-85
2022/02/17 02:37:52;;;;;;;59.00;34.50;;;7.80;97.10;;;;;;5109658;28;20051;-84
2022/02/17 02:41:04;;;;;;;69.47;35.58;;;7.60;96.60;;;;;;5097965;28;20042;-84
2022/02/17 02:44:24;;;;;;;61.40;36.22;;;7.50;96.60;;;;;;5109445;28;20229;-84
2022/02/17 02:47:35;;;;;;;59.38;34.75;;;7.50;96.40;;;;;;5109333;28;20066;-84
2022/02/17 02:50:44;;;;;;;55.67;35.00;;;7.30;96.30;;;;;;5068169;28;20394;-84
2022/02/17 02:53:48;;;;;;;52.28;32.67;;;7.20;96.40;;;;;;5067688;28;20041;-85
2022/02/17 02:56:53;;;;;;;54.70;31.27;;;7.10;96.70;;;;;;5044624;28;20406;-84
2022/02/17 02:59:57;;;;;;;51.05;29.38;;;7.10;96.60;;;;;;5067379;28;20033;-85
2022/02/17 03:03:02;;;;;;;50.15;28.77;;;6.90;96.80;;;;;;5055606;28;20048;-83
2022/02/17 03:06:09;;;;;;;39.28;25.48;;;6.80;97.10;;;;;;5067301;28;20044;-83
2022/02/17 03:09:13;;;;;;;34.75;20.67;;;6.80;97.50;;;;;;5067306;28;20048;-83
2022/02/17 03:12:18;;;;;;;39.55;20.02;;;6.90;97.80;;;;;;5066993;28;20039;-84
2022/02/17 03:15:26;;;;;;;32.70;19.33;;;6.90;97.90;;;;;;5067210;28;20071;-84
2022/02/17 03:18:30;;;;;;;42.38;20.10;;;6.90;98.00;;;;;;5067407;28;20039;-84
2022/02/17 03:21:34;;;;;;;37.47;22.58;;;7.00;98.20;;;;;;5067077;28;20043;-83
2022/02/17 03:24:38;;;;;;;40.13;22.55;;;6.90;97.60;;;;;;5066941;28;20044;-85
2022/02/17 03:27:42;;;;;;;41.95;21.95;;;7.00;97.20;;;;;;5066820;28;20039;-83
2022/02/17 03:31:07;;;;;;;45.05;24.95;;;7.00;97.30;;;;;;5067377;28;20072;-84
2022/02/17 03:34:19;;;;;;;44.20;23.48;;;6.90;97.70;;;;;;5055064;28;20040;-83
2022/02/17 03:37:23;;;;;;;36.75;21.27;;;7.00;98.30;;;;;;5066425;28;20059;-83
2022/02/17 03:40:27;;;;;;;40.60;21.23;;;7.10;98.30;;;;;;5066139;28;20051;-84
2022/02/17 03:43:36;;;;;;;43.80;21.70;;;7.20;98.10;;;;;;5066223;28;20400;-84
2022/02/17 03:46:42;;;;;;;39.17;20.48;;;7.20;98.20;;;;;;5066027;28;20052;-84
2022/02/17 03:49:47;;;;;;;37.42;22.38;;;7.30;98.20;;;;;;5065745;28;20063;-84
2022/02/17 03:52:51;;;;;;;38.42;21.25;;;7.30;97.90;;;;;;5066309;28;20040;-85
2022/02/17 03:56:00;;;;;;;41.95;20.70;;;7.30;97.60;;;;;;5066399;28;20056;-84
2022/02/17 03:59:24;;;;;;;33.60;20.55;;;7.20;97.40;;;;;;5066722;28;20047;-84
2022/02/17 04:02:28;;;;;;;31.48;19.65;;;7.10;97.00;;;;;;5040750;28;20499;-84
2022/02/17 04:05:33;;;;;;;31.80;19.88;;;7.20;96.80;;;;;;5052853;28;20056;-84
2022/02/17 04:08:46;;;;;;;32.67;18.70;;;7.00;96.20;;;;;;5052677;28;20052;-84
2022/02/17 04:11:50;;;;;;;33.03;19.17;;;6.90;96.40;;;;;;5053284;28;20417;-84
2022/02/17 04:14:55;;;;;;;33.72;18.02;;;6.80;96.70;;;;;;5052431;28;20036;-84
2022/02/17 04:18:00;;;;;;;33.13;17.20;;;6.70;96.80;;;;;;5041160;28;20044;-84
2022/02/17 04:21:15;;;;;;;30.05;16.17;;;6.60;96.30;;;;;;5052256;28;20044;-84
2022/02/17 04:24:33;;;;;;;35.85;16.30;;;6.60;96.40;;;;;;5041087;28;20052;-84
2022/02/17 04:27:39;;;;;;;23.52;14.57;;;6.50;96.20;;;;;;5052600;28;20060;-84
2022/02/17 04:30:45;;;;;;;33.33;15.90;;;6.40;96.40;;;;;;5051757;28;20048;-84
2022/02/17 04:33:50;;;;;;;28.17;16.10;;;6.40;97.20;;;;;;5052240;28;20044;-84
2022/02/17 04:37:02;;;;;;;28.92;15.23;;;6.50;97.60;;;;;;5052047;28;20036;-85
2022/02/17 04:40:07;;;;;;;27.73;15.38;;;6.50;97.50;;;;;;5052832;28;20504;-84
2022/02/17 04:43:22;;;;;;;29.95;17.02;;;6.40;97.50;;;;;;5051971;28;20041;-84
2022/02/17 04:46:27;;;;;;;26.40;15.13;;;6.50;98.00;;;;;;5052080;28;20516;-84
2022/02/17 04:49:31;;;;;;;36.13;17.45;;;6.50;98.20;;;;;;5051521;28;20064;-83
2022/02/17 04:52:36;;;;;;;32.15;17.15;;;6.60;98.40;;;;;;5040555;28;20509;-84
2022/02/17 04:55:40;;;;;;;29.17;17.40;;;6.70;98.50;;;;;;5052664;28;20048;-84
2022/02/17 04:58:45;;;;;;;31.05;17.35;;;6.80;98.50;;;;;;5040629;28;20127;-85
2022/02/17 05:01:49;;;;;;;28.23;16.08;;;6.80;98.30;;;;;;5052224;28;20059;-84
2022/02/17 05:05:11;;;;;;;33.63;16.13;;;6.80;97.70;;;;;;5042316;28;20401;-84
2022/02/17 05:08:15;;;;;;;27.85;16.20;;;6.80;97.10;;;;;;5051674;28;20055;-84
2022/02/17 05:11:20;;;;;;;24.63;13.38;;;6.80;96.90;;;;;;5051472;28;20060;-84
2022/02/17 05:14:25;;;;;;;32.67;14.95;;;6.70;96.60;;;;;;5051511;28;20043;-84
2022/02/17 05:17:31;;;;;;;28.88;15.52;;;6.50;96.60;;;;;;5051537;28;20397;-85
2022/02/17 05:20:35;;;;;;;32.33;14.27;;;6.40;97.00;;;;;;5051998;28;20040;-85
2022/02/17 05:23:58;;;;;;;26.90;13.23;;;6.40;97.10;;;;;;5052108;28;20048;-84
2022/02/17 05:27:28;;;;;;;30.00;13.73;;;6.30;96.80;;;;;;5051233;28;20040;-84
2022/02/17 05:30:51;;;;;;;27.50;13.02;;;6.30;96.70;;;;;;5050718;28;20404;-85
2022/02/17 05:34:25;;;;;;;27.55;13.32;;;6.30;96.80;;;;;;5056589;28;20048;-84
2022/02/17 05:37:52;;;;;;;28.23;12.82;;;6.20;96.90;;;;;;5042928;28;20051;-84
2022/02/17 05:41:15;;;;;;;23.67;12.88;;;6.20;96.80;;;;;;5051715;28;20048;-84
2022/02/17 05:44:20;;;;;;;31.45;20.88;;;6.30;96.50;;;;;;5051970;28;20147;-84
2022/02/17 05:47:24;;;;;;;33.72;16.15;;;6.30;96.10;;;;;;5051847;28;20420;-84
2022/02/17 05:50:29;;;;;;;21.98;13.55;;;6.10;96.40;;;;;;5050974;28;20072;-84
2022/02/17 05:53:39;;;;;;;32.88;15.30;;;6.10;96.90;;;;;;5051540;28;20384;-84
2022/02/17 05:56:43;;;;;;;30.15;15.43;;;6.00;97.60;;;;;;5051657;28;20515;-84
2022/02/17 05:59:46;;;;;;;27.80;15.20;;;6.00;98.10;;;;;;5051241;28;20044;-85
2022/02/17 06:02:53;;;;;;;36.25;17.23;;;6.00;98.50;;;;;;5051314;28;20048;-84
2022/02/17 06:05:56;;;;;;;32.00;15.63;;;6.20;98.50;;;;;;5051151;28;20056;-85
2022/02/17 06:09:00;;;;;;;30.60;14.52;;;6.30;98.10;;;;;;5050907;28;20052;-82
2022/02/17 06:12:04;;;;;;;31.80;15.50;;;6.30;97.70;;;;;;5051230;28;20115;-85
2022/02/17 06:15:10;;;;;;;28.02;15.25;;;6.40;97.60;;;;;;5051138;28;20040;-85
2022/02/17 06:18:13;;;;;;;26.70;13.48;;;6.50;97.50;;;;;;5051222;28;20048;-85
2022/02/17 06:21:19;;;;;;;45.88;16.60;;;6.60;97.10;;;;;;5050854;28;20496;-85
2022/02/17 06:24:23;;;;;;;35.55;14.90;;;6.60;96.50;;;;;;5050507;28;20060;-84
2022/02/17 06:27:27;;;;;;;28.33;14.45;;;6.70;96.70;;;;;;5050868;28;20039;-85
2022/02/17 06:30:31;;;;;;;28.67;16.17;;;6.80;96.50;;;;;;5038121;28;20056;-85
2022/02/17 06:33:36;;;;;;;22.77;13.75;;;7.00;96.30;;;;;;5050978;28;20055;-85
2022/02/17 06:36:41;;;;;;;31.95;15.52;;;7.10;96.30;;;;;;5050569;28;20511;-85
2022/02/17 06:39:46;;;;;;;26.65;14.65;;;7.20;96.40;;;;;;5027797;28;20064;-85
2022/02/17 06:42:50;;;;;;;28.55;15.02;;;7.50;96.10;;;;;;5051287;28;20060;-84
2022/02/17 06:45:56;;;;;;;29.00;15.57;;;7.70;95.80;;;;;;5050805;28;20043;-85
2022/02/17 06:49:01;;;;;;;34.92;15.07;;;8.00;95.30;;;;;;5050905;28;20377;-85
2022/02/17 06:52:06;;;;;;;35.47;15.73;;;8.40;94.70;;;;;;5050395;28;20056;-85
2022/02/17 06:55:10;;;;;;;36.47;16.10;;;8.50;94.60;;;;;;5051342;28;20055;-85
2022/02/17 06:58:16;;;;;;;31.45;14.85;;;8.70;94.40;;;;;;5050449;28;20044;-85
2022/02/17 07:01:23;;;;;;;41.65;17.10;;;8.70;94.20;;;;;;5050797;28;20499;-85
2022/02/17 07:04:27;;;;;;;56.03;17.35;;;9.00;94.30;;;;;;5050184;28;20078;-85
2022/02/17 07:07:35;;;;;;;45.08;17.10;;;9.00;94.50;;;;;;5050346;28;20426;-85
2022/02/17 07:10:54;;;;;;;40.55;16.13;;;9.20;94.50;;;;;;5050304;28;20052;-85
2022/02/17 07:13:58;;;;;;;50.38;18.80;;;9.40;94.30;;;;;;5050375;28;20052;-85
2022/02/17 07:17:03;;;;;;;38.15;15.82;;;9.80;94.00;;;;;;5050715;28;20052;-85
2022/02/17 07:20:07;;;;;;;31.27;14.65;;;10.00;93.80;;;;;;5049374;28;20504;-76
2022/02/17 07:23:14;;;;;;;36.47;15.77;;;10.30;93.30;;;;;;5050121;28;20500;-79
2022/02/17 07:26:18;;;;;;;32.97;16.63;;;10.50;92.60;;;;;;5049538;28;20488;-77
2022/02/17 07:29:23;;;;;;;30.17;15.50;;;10.50;92.70;;;;;;5050091;28;20052;-76
2022/02/17 07:32:26;;;;;;;25.83;15.20;;;10.80;92.40;;;;;;5050050;28;20056;-76
2022/02/17 07:35:31;;;;;;;39.25;21.40;;;11.10;91.70;;;;;;5049809;28;20345;-76
2022/02/17 07:38:36;;;;;;;43.88;21.15;;;11.20;92.20;;;;;;5052664;28;20047;-75
2022/02/17 07:41:40;;;;;;;33.22;17.58;;;11.30;92.40;;;;;;5053566;28;20139;-78
2022/02/17 07:44:44;;;;;;;34.20;17.30;;;11.40;92.30;;;;;;5053050;28;20044;-84
2022/02/17 07:47:49;;;;;;;29.65;16.90;;;11.30;92.30;;;;;;5053572;28;20048;-78
2022/02/17 07:50:55;;;;;;;32.63;17.55;;;11.20;92.80;;;;;;5053130;28;20052;-79
2022/02/17 07:54:00;;;;;;;31.10;17.27;;;10.90;93.30;;;;;;5041242;28;20393;-74
2022/02/17 07:57:05;;;;;;;26.25;15.00;;;10.70;94.00;;;;;;5052633;28;20048;-77
2022/02/17 08:00:14;;;;;;;30.15;14.85;;;10.80;94.20;;;;;;5053357;28;20417;-83
2022/02/17 08:03:18;;;;;;;40.28;22.25;;;10.90;93.90;;;;;;5053636;28;20143;-78
2022/02/17 08:06:22;;;;;;;52.92;23.88;;;11.20;94.00;;;;;;5053567;28;20044;-77
2022/02/17 08:09:26;;;;;;;41.35;21.90;;;11.40;93.50;;;;;;5053395;28;20047;-76
2022/02/17 08:12:30;;;;;;;39.17;20.08;;;11.60;92.60;;;;;;5053220;28;20063;-76
2022/02/17 08:15:34;;;;;;;51.15;24.55;;;11.70;92.90;;;;;;5052771;28;20040;-78
2022/02/17 08:18:38;;;;;;;45.85;23.05;;;11.80;92.40;;;;;;5052974;28;20051;-77
2022/02/17 08:21:42;;;;;;;43.13;21.10;;;11.60;93.00;;;;;;5051948;28;20040;-79
2022/02/17 08:24:46;;;;;;;34.67;18.52;;;11.50;93.50;;;;;;5053077;28;20393;-75
2022/02/17 08:27:51;;;;;;;36.30;18.65;;;11.50;93.70;;;;;;5052661;28;20056;-75
2022/02/17 08:30:55;;;;;;;41.75;20.83;;;11.60;93.50;;;;;;5052297;28;20124;-74
2022/02/17 08:34:05;;;;;;;41.63;18.23;;;11.60;93.70;;;;;;5052833;28;20040;-75
2022/02/17 08:37:10;;;;;;;42.47;17.63;;;11.60;93.90;;;;;;5051622;28;20503;-74
2022/02/17 08:40:14;;;;;;;36.13;17.35;;;11.50;93.50;;;;;;5052857;28;20361;-75
2022/02/17 08:43:19;;;;;;;29.40;17.38;;;11.50;93.50;;;;;;5051766;28;20408;-75
2022/02/17 08:46:23;;;;;;;31.27;15.88;;;11.40;94.00;;;;;;5052344;28;20059;-73
2022/02/17 08:49:27;;;;;;;29.35;14.98;;;11.40;93.90;;;;;;5052443;28;20055;-74
2022/02/17 08:52:31;;;;;;;44.22;16.83;;;11.40;94.00;;;;;;5052380;28;20052;-73
2022/02/17 08:55:36;;;;;;;44.45;18.02;;;11.30;93.80;;;;;;5052378;28;20048;-74
2022/02/17 08:58:40;;;;;;;44.20;18.73;;;11.30;94.00;;;;;;5040090;28;20047;-74
2022/02/17 09:01:44;;;;;;;29.48;17.00;;;11.40;94.30;;;;;;5051498;28;20052;-74
2022/02/17 09:04:48;;;;;;;33.72;17.98;;;11.50;94.20;;;;;;5052292;28;20405;-75
2022/02/17 09:07:52;;;;;;;29.23;16.83;;;11.70;93.60;;;;;;5052077;28;20051;-75
2022/02/17 09:10:56;;;;;;;35.53;17.17;;;11.70;93.50;;;;;;5051887;28;20080;-72
2022/02/17 09:14:00;;;;;;;38.08;16.73;;;11.90;93.50;;;;;;5051274;28;20044;-73
2022/02/17 09:17:04;;;;;;;29.70;15.20;;;12.00;92.90;;;;;;5052018;28;20048;-75
2022/02/17 09:20:11;;;;;;;26.75;13.85;;;12.30;93.10;;;;;;5052035;28;20063;-73
2022/02/17 09:23:15;;;;;;;25.73;12.85;;;12.60;92.90;;;;;;5052312;28;20052;-78
2022/02/17 09:26:18;;;;;;;30.48;15.93;;;12.90;92.50;;;;;;5052096;28;20043;-78
2022/02/17 09:29:22;;;;;;;29.20;15.35;;;13.20;92.00;;;;;;5050981;28;20500;-84
2022/02/17 09:32:26;;;;;;;27.13;13.65;;;13.40;91.30;;;;;;5051651;28;20064;-74
2022/02/17 09:35:31;;;;;;;26.23;12.88;;;13.60;91.10;;;;;;5051424;28;20500;-80
2022/02/17 09:38:35;;;;;;;21.45;11.55;;;13.80;90.60;;;;;;5050960;28;20052;-77
2022/02/17 09:41:38;;;;;;;23.15;11.48;;;13.80;90.60;;;;;;5051686;28;20060;-75
2022/02/17 09:44:43;;;;;;;24.00;11.68;;;14.10;90.50;;;;;;5051480;28;20396;-76
2022/02/17 09:47:47;;;;;;;22.67;11.95;;;14.40;90.40;;;;;;5051243;28;20044;-76
2022/02/17 09:50:51;;;;;;;22.60;10.60;;;14.60;88.50;;;;;;5051061;28;20059;-74
2022/02/17 09:53:56;;;;;;;25.65;11.65;;;14.70;88.00;;;;;;5051253;28;20048;-77
2022/02/17 09:57:01;;;;;;;21.17;9.50;;;14.80;87.40;;;;;;5050610;28;20056;-75
2022/02/17 10:00:08;;;;;;;21.30;8.85;;;15.00;87.50;;;;;;5049817;28;20043;-75
2022/02/17 10:03:29;;;;;;;18.95;7.90;;;15.00;84.50;;;;;;5051281;28;20043;-76
2022/02/17 10:06:57;;;;;;;14.27;8.45;;;15.10;84.50;;;;;;5051228;28;20516;-74
2022/02/17 10:10:05;;;;;;;20.63;9.60;;;15.30;84.50;;;;;;5050534;28;20511;-76
2022/02/17 10:13:17;;;;;;;16.83;8.75;;;15.30;84.80;;;;;;5050807;28;20404;-76
2022/02/17 10:16:20;;;;;;;14.77;8.30;;;15.50;84.50;;;;;;5051052;28;20039;-78
2022/02/17 10:19:28;;;;;;;15.90;8.18;;;15.60;83.90;;;;;;5050568;28;20056;-77
2022/02/17 10:22:34;;;;;;;15.70;7.70;;;15.70;83.60;;;;;;5050875;28;20047;-79
2022/02/17 10:25:38;;;;;;;16.67;7.43;;;15.90;83.00;;;;;;5050714;28;20048;-77
2022/02/17 10:28:59;;;;;;;14.48;7.25;;;16.00;83.00;;;;;;5050623;28;20047;-76
2022/02/17 10:32:12;;;;;;;19.70;6.95;;;16.10;82.10;;;;;;5050473;28;20068;-75
2022/02/17 10:35:18;;;;;;;15.88;7.30;;;16.20;81.80;;;;;;5049324;28;20043;-75
2022/02/17 10:38:22;;;;;;;14.65;6.88;;;16.20;81.80;;;;;;5050372;28;20504;-78
2022/02/17 10:41:44;;;;;;;13.40;6.47;;;16.30;81.70;;;;;;5050100;28;20044;-78
2022/02/17 10:44:48;;;;;;;21.98;7.70;;;16.40;81.30;;;;;;5049604;28;20515;-79
2022/02/17 10:47:52;;;;;;;14.75;8.40;;;16.30;80.40;;;;;;5050364;28;20037;-74
2022/02/17 10:51:08;;;;;;;19.98;7.68;;;16.30;80.70;;;;;;5050004;28;20055;-76
2022/02/17 10:54:19;;;;;;;16.30;7.20;;;16.30;80.50;;;;;;5050427;28;20044;-79
2022/02/17 10:57:27;;;;;;;20.52;9.30;;;16.30;80.10;;;;;;5049552;28;20131;-80
2022/02/17 11:00:32;;;;;;;16.58;7.70;;;16.40;81.00;;;;;;5049700;28;20048;-82
2022/02/17 11:03:37;;;;;;;19.08;9.25;;;16.40;80.10;;;;;;5050471;28;20527;-79
2022/02/17 11:06:43;;;;;;;12.18;6.93;;;16.50;79.20;;;;;;5050599;28;20584;-77
2022/02/17 11:09:48;;;;;;;12.63;6.22;;;16.60;78.90;;;;;;5050068;28;20056;-75
2022/02/17 11:12:52;;;;;;;15.25;6.03;;;16.60;77.90;;;;;;5053928;28;20056;-75
2022/02/17 11:15:58;;;;;;;14.00;6.03;;;16.70;77.20;;;;;;5054588;28;20052;-76
2022/02/17 11:19:03;;;;;;;13.93;5.53;;;16.80;77.30;;;;;;5054378;28;20104;-75
2022/02/17 11:22:07;;;;;;;10.50;4.93;;;16.80;76.10;;;;;;5054043;28;20048;-75
2022/02/17 11:25:12;;;;;;;13.23;5.35;;;16.60;75.60;;;;;;5054050;28;20056;-75
2022/02/17 11:28:17;;;;;;;13.45;5.10;;;16.70;75.90;;;;;;5054274;28;20044;-75
2022/02/17 11:31:21;;;;;;;11.32;4.85;;;16.60;75.50;;;;;;5052641;28;20060;-75
2022/02/17 11:34:43;;;;;;;15.40;5.78;;;16.70;75.80;;;;;;5053542;28;20078;-75
2022/02/17 11:37:48;;;;;;;19.60;7.90;;;16.60;76.20;;;;;;5052977;28;20048;-75
2022/02/17 11:41:14;;;;;;;15.13;6.90;;;16.60;76.10;;;;;;5053733;28;20064;-75
2022/02/17 11:44:21;;;;;;;12.98;6.78;;;16.60;76.00;;;;;;5053690;28;20039;-75
2022/02/17 11:48:08;;;;;;;24.33;9.63;;;16.60;77.10;;;;;;5053829;28;20052;-77
2022/02/17 11:51:25;;;;;;;15.30;8.48;;;16.60;77.30;;;;;;5053338;28;20056;-75
2022/02/17 11:54:28;;;;;;;14.70;8.05;;;16.60;76.90;;;;;;5053577;28;20408;-75
2022/02/17 11:57:37;;;;;;;14.48;8.60;;;16.50;76.00;;;;;;5053678;28;20079;-76
2022/02/17 12:00:41;;;;;;;15.07;8.20;;;16.50;76.70;;;;;;5053182;28;20052;-75
2022/02/17 12:04:08;;;;;;;22.50;10.77;;;16.40;77.10;;;;;;5053641;28;20389;-75
2022/02/17 12:07:32;;;;;;;17.55;9.48;;;16.50;77.10;;;;;;5053496;28;20052;-75
2022/02/17 12:10:38;;;;;;;17.83;5.72;;;16.50;77.50;;;;;;5052995;28;20056;-75
2022/02/17 12:13:49;;;;;;;14.00;6.65;;;16.40;75.20;;;;;;5052464;28;20044;-75
2022/02/17 12:17:02;;;;;;;17.45;7.05;;;16.40;76.10;;;;;;5052577;28;20048;-75
2022/02/17 12:20:11;;;;;;;16.45;6.28;;;16.40;75.80;;;;;;5052131;28;20291;-75
2022/02/17 12:23:17;;;;;;;15.63;6.45;;;16.30;76.00;;;;;;5051822;28;20405;-75
2022/02/17 12:26:39;;;;;;;15.38;6.80;;;16.30;76.10;;;;;;5052882;28;20543;-75
2022/02/17 12:29:43;;;;;;;15.45;6.90;;;16.30;76.70;;;;;;5052783;28;20048;-75
2022/02/17 12:32:47;;;;;;;17.33;6.93;;;16.30;76.60;;;;;;5052480;28;20051;-75
2022/02/17 12:36:00;;;;;;;20.63;8.25;;;16.30;76.80;;;;;;5053151;28;20491;-76
2022/02/17 12:39:05;;;;;;;16.15;7.53;;;16.30;76.80;;;;;;5051736;28;20051;-75
2022/02/17 12:42:09;;;;;;;19.73;8.10;;;16.30;77.20;;;;;;5052621;28;20203;-76
2022/02/17 12:45:13;;;;;;;14.75;7.53;;;16.30;77.40;;;;;;5052457;28;20048;-75
2022/02/17 12:48:17;;;;;;;12.90;6.47;;;16.30;77.60;;;;;;5052779;28;20456;-75
2022/02/17 12:51:31;;;;;;;12.45;6.28;;;16.30;77.70;;;;;;5051421;28;20052;-76
2022/02/17 12:54:40;;;;;;;15.43;6.32;;;16.30;77.90;;;;;;5052630;28;20044;-75
2022/02/17 12:57:53;;;;;;;12.95;6.10;;;16.30;77.30;;;;;;5052198;28;20052;-76
2022/02/17 13:00:59;;;;;;;19.60;7.25;;;16.30;77.50;;;;;;5040198;28;20503;-75
2022/02/17 13:04:05;;;;;;;13.75;4.95;;;16.30;77.70;;;;;;5052521;28;20223;-75
2022/02/17 13:07:09;;;;;;;10.20;4.70;;;16.30;78.00;;;;;;5052594;28;20483;-75
2022/02/17 13:10:13;;;;;;;12.25;4.75;;;16.30;78.00;;;;;;5051874;28;20507;-75
2022/02/17 13:13:18;;;;;;;11.43;5.15;;;16.30;77.50;;;;;;5052133;28;20056;-74
2022/02/17 13:16:22;;;;;;;18.10;4.82;;;16.30;75.30;;;;;;5051205;28;20040;-76
2022/02/17 13:19:38;;;;;;;15.82;4.20;;;16.20;75.50;;;;;;5051933;28;20116;-76
2022/02/17 13:22:42;;;;;;;7.47;3.53;;;16.20;73.80;;;;;;5052113;28;20052;-78
2022/02/17 13:25:46;;;;;;;9.13;3.20;;;16.20;74.20;;;;;;5051899;28;20527;-76
2022/02/17 13:28:56;;;;;;;6.05;3.03;;;16.10;73.50;;;;;;5051823;28;20505;-78
2022/02/17 13:32:11;;;;;;;10.55;4.05;;;16.10;73.20;;;;;;5051556;28;20049;-75
2022/02/17 13:35:16;;;;;;;11.35;3.90;;;16.00;73.60;;;;;;5050688;28;20044;-78
2022/02/17 13:38:30;;;;;;;9.63;3.95;;;16.00;73.90;;;;;;5052255;28;20388;-76
2022/02/17 13:41:35;;;;;;;14.05;4.22;;;16.00;73.60;;;;;;5052012;28;20047;-81
2022/02/17 13:44:43;;;;;;;15.18;3.83;;;15.90;72.60;;;;;;5051335;28;20051;-81
2022/02/17 13:47:51;;;;;;;11.18;4.80;;;15.80;73.00;;;;;;5051517;28;20051;-84
2022/02/17 13:51:07;;;;;;;9.30;4.15;;;15.80;74.60;;;;;;5050205;28;20056;-74
2022/02/17 13:54:11;;;;;;;13.27;5.15;;;15.80;75.50;;;;;;5050657;28;20046;-82
2022/02/17 13:57:16;;;;;;;15.98;4.95;;;15.80;75.80;;;;;;5051776;28;20052;-82
2022/02/17 14:00:30;;;;;;;9.70;5.20;;;15.70;76.10;;;;;;5051374;28;20044;-82
2022/02/17 14:03:38;;;;;;;11.30;4.65;;;15.70;77.30;;;;;;5051498;28;20047;-77
2022/02/17 14:06:42;;;;;;;14.30;5.25;;;15.70;78.00;;;;;;5050994;28;20064;-79
2022/02/17 14:09:47;;;;;;;11.50;4.70;;;15.60;79.00;;;;;;5051191;28;20048;-75
2022/02/17 14:12:51;;;;;;;23.00;6.35;;;15.60;79.00;;;;;;5050987;28;20060;-76
2022/02/17 14:15:57;;;;;;;13.85;5.72;;;15.50;79.90;;;;;;5051017;28;20424;-77
2022/02/17 14:19:01;;;;;;;14.77;5.65;;;15.50;80.20;;;;;;5050312;28;20059;-75
2022/02/17 14:22:05;;;;;;;14.85;6.47;;;15.50;80.90;;;;;;5050760;28;20063;-76
2022/02/17 14:25:10;;;;;;;11.73;5.65;;;15.50;81.50;;;;;;5050427;28;20104;-76
2022/02/17 14:28:14;;;;;;;17.35;6.32;;;15.40;81.30;;;;;;5050359;28;20059;-76
2022/02/17 14:31:18;;;;;;;16.83;6.68;;;15.40;81.80;;;;;;5050636;28;20071;-75
2022/02/17 14:34:22;;;;;;;11.70;6.93;;;15.40;81.90;;;;;;5051335;28;20044;-78
2022/02/17 14:37:29;;;;;;;19.48;8.07;;;15.30;82.70;;;;;;5050917;28;20042;-77
2022/02/17 14:40:38;;;;;;;12.63;6.47;;;15.30;82.70;;;;;;5050723;28;20060;-76
2022/02/17 14:43:42;;;;;;;13.32;6.10;;;15.20;83.10;;;;;;5050603;28;20047;-76
2022/02/17 14:46:46;;;;;;;17.67;6.50;;;15.20;83.20;;;;;;5050770;28;20047;-79
2022/02/17 14:49:52;;;;;;;13.93;6.30;;;15.20;82.40;;;;;;5049994;28;20056;-78
2022/02/17 14:52:56;;;;;;;18.38;10.43;;;15.10;81.10;;;;;;5050295;28;20044;-75
2022/02/17 14:56:01;;;;;;;26.20;11.85;;;15.10;81.70;;;;;;5050891;28;20048;-78
2022/02/17 14:59:06;;;;;;;14.25;7.55;;;15.10;83.30;;;;;;5050526;28;20040;-78
2022/02/17 15:02:10;;;;;;;14.05;7.53;;;15.10;83.30;;;;;;5050129;28;20063;-77
2022/02/17 15:05:15;;;;;;;17.02;7.45;;;15.00;83.50;;;;;;5049456;28;20052;-72
2022/02/17 15:08:19;;;;;;;13.10;6.90;;;15.00;83.60;;;;;;5049423;28;20048;-73
2022/02/17 15:11:23;;;;;;;11.75;7.00;;;15.00;83.70;;;;;;5050139;28;20072;-76
2022/02/17 15:14:27;;;;;;;14.23;7.35;;;15.00;83.30;;;;;;5050234;28;20039;-74
2022/02/17 15:17:33;;;;;;;18.52;6.75;;;15.00;84.10;;;;;;5050440;28;20052;-82
2022/02/17 15:20:37;;;;;;;11.95;7.53;;;15.00;84.20;;;;;;5049471;28;20055;-80
2022/02/17 15:23:41;;;;;;;14.82;9.13;;;15.00;84.70;;;;;;5050251;28;20059;-80
2022/02/17 15:26:45;;;;;;;16.88;7.88;;;14.90;85.40;;;;;;5050554;28;20048;-79
2022/02/17 15:29:49;;;;;;;14.73;7.30;;;14.90;85.50;;;;;;5049181;28;20067;-78
2022/02/17 15:32:54;;;;;;;15.60;8.30;;;14.80;85.50;;;;;;5050004;28;20401;-77
2022/02/17 15:35:58;;;;;;;14.73;7.07;;;14.80;84.30;;;;;;5050096;28;20051;-78
2022/02/17 15:39:02;;;;;;;14.00;7.13;;;14.80;83.90;;;;;;5050077;28;20075;-76
2022/02/17 15:42:06;;;;;;;14.27;8.35;;;14.70;83.90;;;;;;5050094;28;20473;-77
2022/02/17 15:45:12;;;;;;;14.52;7.22;;;14.70;83.80;;;;;;5049781;28;20449;-78
2022/02/17 15:48:17;;;;;;;18.65;7.72;;;14.70;83.40;;;;;;5049635;28;20044;-78
2022/02/17 15:51:22;;;;;;;16.25;7.93;;;14.70;82.90;;;;;;5049426;28;20203;-76
2022/02/17 15:54:26;;;;;;;17.35;7.57;;;14.60;82.20;;;;;;5049527;28;20520;-79
2022/02/17 15:57:30;;;;;;;20.25;8.32;;;14.60;83.80;;;;;;5051698;28;20044;-80
2022/02/17 16:00:35;;;;;;;17.80;9.73;;;14.60;84.80;;;;;;5053265;28;20393;-80